Aérodrome :
LOGIN :

S'inscrire | Disclaimer

   EN    FR    IT 

 










Légende :    VFR   VFR Marginal   IFR   IFR Intensif   IFR Très Intensif
Visi : 
Plafond : 
>= 8 km
>= 3000ft
5 à 8 km
1000 à 3000 ft
1500m à 5 km
500 à 1000 ft
800 à 1500m
200 à 500 ft
< 800m
< 200 ft
Symboles :   Orages  Brouillard  Fortes neiges  Fortes précipitations  Vent > 20 kt
SIGMETs :   Divers  Orages  Givrage  Turbulence  Onde Orograph.  Cendres Volcan.







- Altitude de l'aérodrome : 1106 ft
- Voir les cartes d'approche


LFSO - Nancy / Ochey

DERNIER METAR :
  • 211000Z AUTO 21004KT 190V250 9999 FEW013 BKN020 BKN025 03/01 Q1017

METARs EXPIRÉS :
  • 210930Z AUTO VRB02KT 9999 OVC022 03/01 Q1017
  • 210900Z AUTO VRB02KT 9999 OVC022 02/01 Q1017
  • 210830Z AUTO VRB02KT 9999 FEW014 OVC023 02/01 Q1016
  • 210800Z AUTO VRB02KT 9999 BKN017 BKN022 OVC027 02/00 Q1016
  • 210730Z AUTO 32005KT 9999 OVC023 02/00 Q1015

Prévision TAF périmée.
Pas de NOTAMs connus pour ce terrain.
1 SIGMET publié pour la FIR Reims (LFEE) :
 
Givrage fort
LFEE SIGMET 1 VALID 210900/211300 LFPW
LFEE REIMS FIR/UIR SEV ICE OBS AT 0900Z S OF N4700 AND W OF E00545 FL140/240 MOV E 10KT WKN=



MET'MAP, la Météo Aéronautique d'un coup d'oeil ! - Copyright ORBIFLY Décembre 2007 - Disclaimer

ORBIFLY MET'MAP TEAM :

Programmation & Développement : Alexandra Zaïnal
Conception & Développement : Baudouin d'Aumeries
Co-Programmation & Développement : Marc-Olivier Méhu
Soutien technique & logistique : Manuel Goepfert

Contact : metmap@orbifly.com




SOURCES & CREDITS :

   NOAA